sensor_id;sensor_type;location;lat;lon;timestamp;P1;durP1;ratioP1;P2;durP2;ratioP2
20042;SDS011;10182;52.896;6.496;2023-12-22T00:01:49;18.83;;;4.87;;
20042;SDS011;10182;52.896;6.496;2023-12-22T00:06:52;21.43;;;4.67;;
20042;SDS011;10182;52.896;6.496;2023-12-22T00:11:55;15.10;;;4.03;;
20042;SDS011;10182;52.896;6.496;2023-12-22T00:16:56;19.83;;;4.83;;
20042;SDS011;10182;52.896;6.496;2023-12-22T00:21:59;23.50;;;5.40;;
20042;SDS011;10182;52.896;6.496;2023-12-22T00:27:03;21.30;;;4.57;;
20042;SDS011;10182;52.896;6.496;2023-12-22T00:32:05;19.50;;;3.87;;
20042;SDS011;10182;52.896;6.496;2023-12-22T00:37:11;17.10;;;4.13;;
20042;SDS011;10182;52.896;6.496;2023-12-22T00:42:12;18.03;;;5.00;;
20042;SDS011;10182;52.896;6.496;2023-12-22T00:47:14;16.83;;;3.17;;
20042;SDS011;10182;52.896;6.496;2023-12-22T00:52:17;10.03;;;3.30;;
20042;SDS011;10182;52.896;6.496;2023-12-22T00:57:19;12.97;;;3.77;;
20042;SDS011;10182;52.896;6.496;2023-12-22T01:02:20;19.83;;;5.10;;
20042;SDS011;10182;52.896;6.496;2023-12-22T01:07:23;22.17;;;4.63;;
20042;SDS011;10182;52.896;6.496;2023-12-22T01:12:25;16.70;;;5.57;;
20042;SDS011;10182;52.896;6.496;2023-12-22T01:17:27;17.97;;;4.27;;
20042;SDS011;10182;52.896;6.496;2023-12-22T01:22:30;17.30;;;5.10;;
20042;SDS011;10182;52.896;6.496;2023-12-22T01:27:33;25.47;;;5.23;;
20042;SDS011;10182;52.896;6.496;2023-12-22T01:32:35;19.20;;;5.20;;
20042;SDS011;10182;52.896;6.496;2023-12-22T01:37:38;12.60;;;3.83;;
20042;SDS011;10182;52.896;6.496;2023-12-22T01:42:40;13.10;;;5.13;;
20042;SDS011;10182;52.896;6.496;2023-12-22T01:47:42;14.67;;;3.47;;
20042;SDS011;10182;52.896;6.496;2023-12-22T01:52:47;19.70;;;3.73;;
20042;SDS011;10182;52.896;6.496;2023-12-22T01:57:48;18.37;;;3.77;;
20042;SDS011;10182;52.896;6.496;2023-12-22T02:02:50;16.20;;;3.77;;
20042;SDS011;10182;52.896;6.496;2023-12-22T02:07:55;18.33;;;4.90;;
20042;SDS011;10182;52.896;6.496;2023-12-22T02:12:56;20.57;;;4.40;;
20042;SDS011;10182;52.896;6.496;2023-12-22T02:17:58;19.77;;;4.10;;
20042;SDS011;10182;52.896;6.496;2023-12-22T02:23:05;23.90;;;4.83;;
20042;SDS011;10182;52.896;6.496;2023-12-22T02:28:07;20.17;;;4.57;;
20042;SDS011;10182;52.896;6.496;2023-12-22T02:33:12;26.97;;;5.47;;
20042;SDS011;10182;52.896;6.496;2023-12-22T02:38:19;17.37;;;4.63;;
20042;SDS011;10182;52.896;6.496;2023-12-22T02:43:21;13.47;;;3.87;;
20042;SDS011;10182;52.896;6.496;2023-12-22T02:48:23;15.87;;;3.20;;
20042;SDS011;10182;52.896;6.496;2023-12-22T02:53:26;19.50;;;3.83;;
20042;SDS011;10182;52.896;6.496;2023-12-22T02:58:28;12.33;;;3.00;;
20042;SDS011;10182;52.896;6.496;2023-12-22T03:03:29;12.03;;;2.57;;
20042;SDS011;10182;52.896;6.496;2023-12-22T03:08:32;11.67;;;2.47;;
20042;SDS011;10182;52.896;6.496;2023-12-22T03:13:34;9.33;;;2.20;;
20042;SDS011;10182;52.896;6.496;2023-12-22T03:18:37;9.97;;;2.73;;
20042;SDS011;10182;52.896;6.496;2023-12-22T03:23:40;10.57;;;2.10;;
20042;SDS011;10182;52.896;6.496;2023-12-22T03:28:42;10.30;;;2.47;;
20042;SDS011;10182;52.896;6.496;2023-12-22T03:33:43;8.70;;;2.63;;
20042;SDS011;10182;52.896;6.496;2023-12-22T03:38:46;8.70;;;2.33;;
20042;SDS011;10182;52.896;6.496;2023-12-22T03:43:48;13.03;;;2.47;;
20042;SDS011;10182;52.896;6.496;2023-12-22T03:48:50;6.03;;;2.40;;
20042;SDS011;10182;52.896;6.496;2023-12-22T03:53:53;13.80;;;4.50;;
20042;SDS011;10182;52.896;6.496;2023-12-22T03:58:55;15.30;;;3.00;;
20042;SDS011;10182;52.896;6.496;2023-12-22T04:03:56;19.60;;;3.80;;
20042;SDS011;10182;52.896;6.496;2023-12-22T04:08:59;16.60;;;4.30;;
20042;SDS011;10182;52.896;6.496;2023-12-22T04:14:02;17.50;;;4.07;;
20042;SDS011;10182;52.896;6.496;2023-12-22T04:19:04;16.80;;;4.17;;
20042;SDS011;10182;52.896;6.496;2023-12-22T04:24:07;18.27;;;3.53;;
20042;SDS011;10182;52.896;6.496;2023-12-22T04:29:09;20.87;;;4.17;;
20042;SDS011;10182;52.896;6.496;2023-12-22T04:34:12;16.20;;;4.30;;
20042;SDS011;10182;52.896;6.496;2023-12-22T04:39:17;16.57;;;3.70;;
20042;SDS011;10182;52.896;6.496;2023-12-22T04:44:18;12.17;;;2.87;;
20042;SDS011;10182;52.896;6.496;2023-12-22T04:49:20;18.43;;;4.70;;
20042;SDS011;10182;52.896;6.496;2023-12-22T04:54:23;17.90;;;4.27;;
20042;SDS011;10182;52.896;6.496;2023-12-22T04:59:25;17.07;;;3.50;;
20042;SDS011;10182;52.896;6.496;2023-12-22T05:04:26;23.80;;;3.93;;
20042;SDS011;10182;52.896;6.496;2023-12-22T05:09:29;19.27;;;4.23;;
20042;SDS011;10182;52.896;6.496;2023-12-22T05:14:31;15.53;;;4.67;;
20042;SDS011;10182;52.896;6.496;2023-12-22T05:19:33;18.00;;;4.27;;
20042;SDS011;10182;52.896;6.496;2023-12-22T05:24:36;19.17;;;4.30;;
20042;SDS011;10182;52.896;6.496;2023-12-22T05:29:38;12.50;;;3.57;;
20042;SDS011;10182;52.896;6.496;2023-12-22T05:34:39;16.27;;;4.10;;
20042;SDS011;10182;52.896;6.496;2023-12-22T05:39:42;16.60;;;3.70;;
20042;SDS011;10182;52.896;6.496;2023-12-22T05:44:45;15.90;;;3.40;;
20042;SDS011;10182;52.896;6.496;2023-12-22T05:49:50;16.23;;;3.90;;
20042;SDS011;10182;52.896;6.496;2023-12-22T05:54:53;21.27;;;3.70;;
20042;SDS011;10182;52.896;6.496;2023-12-22T05:59:54;14.87;;;4.10;;
20042;SDS011;10182;52.896;6.496;2023-12-22T06:04:56;16.97;;;3.77;;
20042;SDS011;10182;52.896;6.496;2023-12-22T06:09:59;21.57;;;4.40;;
20042;SDS011;10182;52.896;6.496;2023-12-22T06:15:01;25.20;;;4.93;;
20042;SDS011;10182;52.896;6.496;2023-12-22T06:20:03;17.43;;;3.37;;
20042;SDS011;10182;52.896;6.496;2023-12-22T06:25:06;15.97;;;4.53;;
20042;SDS011;10182;52.896;6.496;2023-12-22T06:30:10;13.50;;;3.47;;
20042;SDS011;10182;52.896;6.496;2023-12-22T06:35:12;10.30;;;2.97;;
20042;SDS011;10182;52.896;6.496;2023-12-22T06:40:15;13.20;;;3.67;;
20042;SDS011;10182;52.896;6.496;2023-12-22T06:45:17;21.77;;;4.70;;
20042;SDS011;10182;52.896;6.496;2023-12-22T06:50:18;17.33;;;3.70;;
20042;SDS011;10182;52.896;6.496;2023-12-22T06:55:21;13.67;;;2.97;;
20042;SDS011;10182;52.896;6.496;2023-12-22T07:00:23;19.40;;;4.90;;
20042;SDS011;10182;52.896;6.496;2023-12-22T07:10:49;13.83;;;4.23;;
20042;SDS011;10182;52.896;6.496;2023-12-22T07:15:50;14.07;;;3.07;;
20042;SDS011;10182;52.896;6.496;2023-12-22T07:20:52;12.10;;;4.30;;
20042;SDS011;10182;52.896;6.496;2023-12-22T07:25:55;11.57;;;3.87;;
20042;SDS011;10182;52.896;6.496;2023-12-22T07:30:58;15.27;;;4.47;;
20042;SDS011;10182;52.896;6.496;2023-12-22T07:36:00;14.63;;;3.30;;
20042;SDS011;10182;52.896;6.496;2023-12-22T07:41:03;17.60;;;3.70;;
20042;SDS011;10182;52.896;6.496;2023-12-22T07:46:04;17.10;;;3.70;;
20042;SDS011;10182;52.896;6.496;2023-12-22T07:51:09;17.40;;;3.97;;
20042;SDS011;10182;52.896;6.496;2023-12-22T07:56:12;17.33;;;3.23;;
20042;SDS011;10182;52.896;6.496;2023-12-22T08:01:14;17.67;;;3.83;;
20042;SDS011;10182;52.896;6.496;2023-12-22T08:06:16;13.93;;;3.33;;
20042;SDS011;10182;52.896;6.496;2023-12-22T08:11:22;14.07;;;3.70;;
20042;SDS011;10182;52.896;6.496;2023-12-22T08:16:25;18.87;;;4.20;;
20042;SDS011;10182;52.896;6.496;2023-12-22T08:21:28;17.73;;;3.57;;
20042;SDS011;10182;52.896;6.496;2023-12-22T08:26:31;12.97;;;3.83;;
20042;SDS011;10182;52.896;6.496;2023-12-22T08:31:33;10.90;;;3.60;;
20042;SDS011;10182;52.896;6.496;2023-12-22T08:36:35;15.90;;;2.90;;
20042;SDS011;10182;52.896;6.496;2023-12-22T08:41:38;8.40;;;2.47;;
20042;SDS011;10182;52.896;6.496;2023-12-22T08:46:40;9.20;;;1.97;;
20042;SDS011;10182;52.896;6.496;2023-12-22T08:51:42;5.67;;;1.43;;
20042;SDS011;10182;52.896;6.496;2023-12-22T08:56:45;7.53;;;1.83;;
20042;SDS011;10182;52.896;6.496;2023-12-22T09:01:46;7.40;;;1.30;;
20042;SDS011;10182;52.896;6.496;2023-12-22T09:06:48;5.67;;;2.07;;
20042;SDS011;10182;52.896;6.496;2023-12-22T09:11:51;5.50;;;1.70;;
20042;SDS011;10182;52.896;6.496;2023-12-22T09:16:53;4.20;;;1.10;;
20042;SDS011;10182;52.896;6.496;2023-12-22T09:21:56;3.83;;;1.03;;
20042;SDS011;10182;52.896;6.496;2023-12-22T09:26:59;6.77;;;1.20;;
20042;SDS011;10182;52.896;6.496;2023-12-22T09:32:03;4.83;;;1.17;;
20042;SDS011;10182;52.896;6.496;2023-12-22T09:37:05;3.40;;;0.90;;
20042;SDS011;10182;52.896;6.496;2023-12-22T09:42:08;4.30;;;1.43;;
20042;SDS011;10182;52.896;6.496;2023-12-22T09:47:10;7.10;;;1.70;;
20042;SDS011;10182;52.896;6.496;2023-12-22T09:52:13;6.57;;;1.50;;
20042;SDS011;10182;52.896;6.496;2023-12-22T09:57:18;5.57;;;1.97;;
20042;SDS011;10182;52.896;6.496;2023-12-22T10:02:20;7.17;;;2.00;;
20042;SDS011;10182;52.896;6.496;2023-12-22T10:07:22;12.73;;;2.77;;
20042;SDS011;10182;52.896;6.496;2023-12-22T10:12:26;9.07;;;2.00;;
20042;SDS011;10182;52.896;6.496;2023-12-22T10:17:29;8.43;;;2.03;;
20042;SDS011;10182;52.896;6.496;2023-12-22T10:22:31;9.40;;;2.20;;
20042;SDS011;10182;52.896;6.496;2023-12-22T10:27:34;10.13;;;2.43;;
20042;SDS011;10182;52.896;6.496;2023-12-22T10:32:39;9.57;;;2.40;;
20042;SDS011;10182;52.896;6.496;2023-12-22T10:37:41;13.70;;;2.80;;
20042;SDS011;10182;52.896;6.496;2023-12-22T10:42:45;12.13;;;2.57;;
20042;SDS011;10182;52.896;6.496;2023-12-22T10:47:48;12.20;;;3.53;;
20042;SDS011;10182;52.896;6.496;2023-12-22T10:52:50;12.73;;;2.57;;
20042;SDS011;10182;52.896;6.496;2023-12-22T10:57:54;15.07;;;2.77;;
20042;SDS011;10182;52.896;6.496;2023-12-22T11:02:57;6.80;;;2.40;;
20042;SDS011;10182;52.896;6.496;2023-12-22T11:08:02;10.33;;;2.70;;
20042;SDS011;10182;52.896;6.496;2023-12-22T11:13:10;8.33;;;1.97;;
20042;SDS011;10182;52.896;6.496;2023-12-22T11:18:14;8.27;;;1.77;;
20042;SDS011;10182;52.896;6.496;2023-12-22T11:23:17;7.30;;;2.00;;
20042;SDS011;10182;52.896;6.496;2023-12-22T11:28:22;7.67;;;2.33;;
20042;SDS011;10182;52.896;6.496;2023-12-22T11:33:25;13.80;;;2.67;;
20042;SDS011;10182;52.896;6.496;2023-12-22T11:38:27;4.20;;;1.17;;
20042;SDS011;10182;52.896;6.496;2023-12-22T11:43:33;9.10;;;1.60;;
20042;SDS011;10182;52.896;6.496;2023-12-22T11:48:36;11.03;;;2.43;;
20042;SDS011;10182;52.896;6.496;2023-12-22T11:53:40;10.30;;;1.87;;
20042;SDS011;10182;52.896;6.496;2023-12-22T11:58:43;11.53;;;1.53;;
20042;SDS011;10182;52.896;6.496;2023-12-22T12:03:51;8.87;;;1.70;;
20042;SDS011;10182;52.896;6.496;2023-12-22T12:08:54;8.83;;;1.67;;
20042;SDS011;10182;52.896;6.496;2023-12-22T12:13:58;9.33;;;2.37;;
20042;SDS011;10182;52.896;6.496;2023-12-22T12:19:11;6.30;;;1.80;;
20042;SDS011;10182;52.896;6.496;2023-12-22T12:24:13;10.37;;;2.03;;
20042;SDS011;10182;52.896;6.496;2023-12-22T12:29:17;10.87;;;2.30;;
20042;SDS011;10182;52.896;6.496;2023-12-22T12:34:19;7.27;;;1.80;;
20042;SDS011;10182;52.896;6.496;2023-12-22T12:39:21;9.93;;;3.50;;
20042;SDS011;10182;52.896;6.496;2023-12-22T12:44:27;11.07;;;2.03;;
20042;SDS011;10182;52.896;6.496;2023-12-22T12:49:32;10.97;;;2.37;;
20042;SDS011;10182;52.896;6.496;2023-12-22T12:54:34;8.47;;;2.30;;
20042;SDS011;10182;52.896;6.496;2023-12-22T12:59:37;6.87;;;1.80;;
20042;SDS011;10182;52.896;6.496;2023-12-22T13:04:39;6.33;;;2.37;;
20042;SDS011;10182;52.896;6.496;2023-12-22T13:09:40;11.23;;;2.17;;
20042;SDS011;10182;52.896;6.496;2023-12-22T13:14:44;11.00;;;2.23;;
20042;SDS011;10182;52.896;6.496;2023-12-22T13:19:46;16.00;;;3.10;;
20042;SDS011;10182;52.896;6.496;2023-12-22T13:24:55;7.60;;;1.93;;
20042;SDS011;10182;52.896;6.496;2023-12-22T13:29:59;13.40;;;2.53;;
20042;SDS011;10182;52.896;6.496;2023-12-22T13:35:00;10.07;;;2.33;;
20042;SDS011;10182;52.896;6.496;2023-12-22T13:40:06;9.83;;;2.30;;
20042;SDS011;10182;52.896;6.496;2023-12-22T13:45:11;12.13;;;2.20;;
20042;SDS011;10182;52.896;6.496;2023-12-22T13:50:13;7.43;;;1.77;;
20042;SDS011;10182;52.896;6.496;2023-12-22T13:55:16;11.10;;;3.10;;
20042;SDS011;10182;52.896;6.496;2023-12-22T14:00:26;10.90;;;3.40;;
20042;SDS011;10182;52.896;6.496;2023-12-22T14:05:29;18.20;;;2.43;;
20042;SDS011;10182;52.896;6.496;2023-12-22T14:10:31;8.20;;;1.97;;
20042;SDS011;10182;52.896;6.496;2023-12-22T14:15:34;6.70;;;1.67;;
20042;SDS011;10182;52.896;6.496;2023-12-22T14:20:36;5.73;;;1.40;;
20042;SDS011;10182;52.896;6.496;2023-12-22T14:25:38;3.87;;;1.07;;
20042;SDS011;10182;52.896;6.496;2023-12-22T14:30:41;3.57;;;1.30;;
20042;SDS011;10182;52.896;6.496;2023-12-22T14:35:43;2.30;;;0.60;;
20042;SDS011;10182;52.896;6.496;2023-12-22T14:40:44;1.60;;;0.77;;
20042;SDS011;10182;52.896;6.496;2023-12-22T14:45:47;4.57;;;0.73;;
20042;SDS011;10182;52.896;6.496;2023-12-22T14:50:49;1.70;;;0.57;;
20042;SDS011;10182;52.896;6.496;2023-12-22T14:55:51;2.83;;;0.60;;
20042;SDS011;10182;52.896;6.496;2023-12-22T15:00:54;3.73;;;1.00;;
20042;SDS011;10182;52.896;6.496;2023-12-22T15:05:56;2.23;;;1.20;;
20042;SDS011;10182;52.896;6.496;2023-12-22T15:10:58;3.90;;;1.73;;
20042;SDS011;10182;52.896;6.496;2023-12-22T15:16:05;2.27;;;1.17;;
20042;SDS011;10182;52.896;6.496;2023-12-22T15:21:07;4.47;;;1.43;;
20042;SDS011;10182;52.896;6.496;2023-12-22T15:26:08;2.30;;;1.07;;
20042;SDS011;10182;52.896;6.496;2023-12-22T15:31:22;6.50;;;1.40;;
20042;SDS011;10182;52.896;6.496;2023-12-22T15:36:24;5.37;;;1.70;;
20042;SDS011;10182;52.896;6.496;2023-12-22T15:41:28;8.37;;;1.77;;
20042;SDS011;10182;52.896;6.496;2023-12-22T15:46:31;7.97;;;1.80;;
20042;SDS011;10182;52.896;6.496;2023-12-22T15:51:33;10.27;;;1.60;;
20042;SDS011;10182;52.896;6.496;2023-12-22T15:56:35;12.87;;;1.50;;
20042;SDS011;10182;52.896;6.496;2023-12-22T16:01:43;9.63;;;1.80;;
20042;SDS011;10182;52.896;6.496;2023-12-22T16:06:45;2.47;;;1.00;;
20042;SDS011;10182;52.896;6.496;2023-12-22T16:11:47;5.33;;;1.20;;
20042;SDS011;10182;52.896;6.496;2023-12-22T16:16:53;5.57;;;1.00;;
20042;SDS011;10182;52.896;6.496;2023-12-22T16:21:55;6.70;;;1.10;;
20042;SDS011;10182;52.896;6.496;2023-12-22T16:26:58;3.83;;;1.00;;
20042;SDS011;10182;52.896;6.496;2023-12-22T16:32:01;5.27;;;1.23;;
20042;SDS011;10182;52.896;6.496;2023-12-22T16:37:03;3.30;;;1.03;;
20042;SDS011;10182;52.896;6.496;2023-12-22T16:42:05;6.00;;;1.27;;
20042;SDS011;10182;52.896;6.496;2023-12-22T16:47:09;3.97;;;1.20;;
20042;SDS011;10182;52.896;6.496;2023-12-22T16:52:11;5.93;;;1.70;;
20042;SDS011;10182;52.896;6.496;2023-12-22T16:57:13;9.53;;;1.53;;
20042;SDS011;10182;52.896;6.496;2023-12-22T17:02:16;7.83;;;1.60;;
20042;SDS011;10182;52.896;6.496;2023-12-22T17:07:18;9.27;;;1.57;;
20042;SDS011;10182;52.896;6.496;2023-12-22T17:12:20;7.93;;;1.57;;
20042;SDS011;10182;52.896;6.496;2023-12-22T17:17:23;7.07;;;1.60;;
20042;SDS011;10182;52.896;6.496;2023-12-22T17:22:25;6.63;;;1.87;;
20042;SDS011;10182;52.896;6.496;2023-12-22T17:27:27;6.00;;;2.27;;
20042;SDS011;10182;52.896;6.496;2023-12-22T17:32:30;9.37;;;2.20;;
20042;SDS011;10182;52.896;6.496;2023-12-22T17:37:31;9.37;;;2.10;;
20042;SDS011;10182;52.896;6.496;2023-12-22T17:42:34;8.80;;;2.33;;
20042;SDS011;10182;52.896;6.496;2023-12-22T17:47:38;13.20;;;2.30;;
20042;SDS011;10182;52.896;6.496;2023-12-22T17:52:39;5.93;;;2.27;;
20042;SDS011;10182;52.896;6.496;2023-12-22T17:57:41;7.30;;;2.50;;
20042;SDS011;10182;52.896;6.496;2023-12-22T18:02:44;8.57;;;2.40;;
20042;SDS011;10182;52.896;6.496;2023-12-22T18:07:47;9.73;;;2.13;;
20042;SDS011;10182;52.896;6.496;2023-12-22T18:12:49;12.00;;;2.43;;
20042;SDS011;10182;52.896;6.496;2023-12-22T18:17:52;10.10;;;2.60;;
20042;SDS011;10182;52.896;6.496;2023-12-22T18:22:54;14.03;;;2.70;;
20042;SDS011;10182;52.896;6.496;2023-12-22T18:27:55;8.53;;;2.10;;
20042;SDS011;10182;52.896;6.496;2023-12-22T18:32:58;14.13;;;2.40;;
20042;SDS011;10182;52.896;6.496;2023-12-22T18:38:00;13.40;;;2.47;;
20042;SDS011;10182;52.896;6.496;2023-12-22T18:43:02;15.73;;;2.50;;
20042;SDS011;10182;52.896;6.496;2023-12-22T18:48:06;9.93;;;2.37;;
20042;SDS011;10182;52.896;6.496;2023-12-22T18:53:08;6.77;;;1.57;;
20042;SDS011;10182;52.896;6.496;2023-12-22T18:58:10;14.90;;;2.80;;
20042;SDS011;10182;52.896;6.496;2023-12-22T19:03:13;8.50;;;1.70;;
20042;SDS011;10182;52.896;6.496;2023-12-22T19:08:14;4.70;;;1.30;;
20042;SDS011;10182;52.896;6.496;2023-12-22T19:13:16;8.30;;;1.73;;
20042;SDS011;10182;52.896;6.496;2023-12-22T19:18:19;6.70;;;1.40;;
20042;SDS011;10182;52.896;6.496;2023-12-22T19:23:21;5.03;;;1.20;;
20042;SDS011;10182;52.896;6.496;2023-12-22T19:28:23;5.83;;;1.60;;
20042;SDS011;10182;52.896;6.496;2023-12-22T19:33:26;4.70;;;1.37;;
20042;SDS011;10182;52.896;6.496;2023-12-22T19:38:28;4.93;;;1.50;;
20042;SDS011;10182;52.896;6.496;2023-12-22T19:43:30;11.70;;;2.10;;
20042;SDS011;10182;52.896;6.496;2023-12-22T19:48:33;9.07;;;1.63;;
20042;SDS011;10182;52.896;6.496;2023-12-22T19:53:34;8.03;;;2.40;;
20042;SDS011;10182;52.896;6.496;2023-12-22T19:58:36;11.80;;;2.07;;
20042;SDS011;10182;52.896;6.496;2023-12-22T20:03:39;9.67;;;2.27;;
20042;SDS011;10182;52.896;6.496;2023-12-22T20:08:41;8.60;;;2.13;;
20042;SDS011;10182;52.896;6.496;2023-12-22T20:13:43;9.00;;;2.20;;
20042;SDS011;10182;52.896;6.496;2023-12-22T20:18:49;5.57;;;1.53;;
20042;SDS011;10182;52.896;6.496;2023-12-22T20:23:50;11.67;;;3.13;;
20042;SDS011;10182;52.896;6.496;2023-12-22T20:28:54;9.17;;;2.07;;
20042;SDS011;10182;52.896;6.496;2023-12-22T20:33:57;12.40;;;2.53;;
20042;SDS011;10182;52.896;6.496;2023-12-22T20:38:59;11.13;;;2.63;;
20042;SDS011;10182;52.896;6.496;2023-12-22T20:44:01;15.90;;;3.23;;
20042;SDS011;10182;52.896;6.496;2023-12-22T20:49:04;10.60;;;2.67;;
20042;SDS011;10182;52.896;6.496;2023-12-22T20:54:06;11.03;;;2.40;;
20042;SDS011;10182;52.896;6.496;2023-12-22T20:59:08;6.27;;;1.97;;
20042;SDS011;10182;52.896;6.496;2023-12-22T21:04:11;10.87;;;2.63;;
20042;SDS011;10182;52.896;6.496;2023-12-22T21:09:12;8.20;;;1.90;;
20042;SDS011;10182;52.896;6.496;2023-12-22T21:14:14;11.57;;;2.30;;
20042;SDS011;10182;52.896;6.496;2023-12-22T21:19:17;11.70;;;2.07;;
20042;SDS011;10182;52.896;6.496;2023-12-22T21:24:19;13.63;;;2.40;;
20042;SDS011;10182;52.896;6.496;2023-12-22T21:29:21;14.50;;;3.23;;
20042;SDS011;10182;52.896;6.496;2023-12-22T21:34:24;12.93;;;2.40;;
20042;SDS011;10182;52.896;6.496;2023-12-22T21:39:26;5.63;;;2.07;;
20042;SDS011;10182;52.896;6.496;2023-12-22T21:44:27;8.27;;;1.87;;
20042;SDS011;10182;52.896;6.496;2023-12-22T21:49:30;9.33;;;2.03;;
20042;SDS011;10182;52.896;6.496;2023-12-22T21:54:32;9.53;;;2.27;;
20042;SDS011;10182;52.896;6.496;2023-12-22T21:59:34;15.03;;;2.40;;
20042;SDS011;10182;52.896;6.496;2023-12-22T22:04:37;8.63;;;2.40;;
20042;SDS011;10182;52.896;6.496;2023-12-22T22:09:40;9.00;;;1.73;;
20042;SDS011;10182;52.896;6.496;2023-12-22T22:14:42;10.13;;;1.80;;
20042;SDS011;10182;52.896;6.496;2023-12-22T22:19:45;8.93;;;1.60;;
20042;SDS011;10182;52.896;6.496;2023-12-22T22:24:46;8.97;;;1.87;;
20042;SDS011;10182;52.896;6.496;2023-12-22T22:29:48;7.20;;;1.47;;
20042;SDS011;10182;52.896;6.496;2023-12-22T22:34:51;5.83;;;2.20;;
20042;SDS011;10182;52.896;6.496;2023-12-22T22:39:53;7.57;;;2.00;;
20042;SDS011;10182;52.896;6.496;2023-12-22T22:44:54;8.37;;;1.97;;
20042;SDS011;10182;52.896;6.496;2023-12-22T22:49:58;5.53;;;1.30;;
20042;SDS011;10182;52.896;6.496;2023-12-22T22:55:00;4.80;;;1.23;;
20042;SDS011;10182;52.896;6.496;2023-12-22T23:00:01;10.80;;;1.73;;
20042;SDS011;10182;52.896;6.496;2023-12-22T23:05:13;13.37;;;2.57;;
20042;SDS011;10182;52.896;6.496;2023-12-22T23:10:14;8.27;;;2.23;;
20042;SDS011;10182;52.896;6.496;2023-12-22T23:15:17;8.40;;;2.50;;
20042;SDS011;10182;52.896;6.496;2023-12-22T23:20:20;7.87;;;2.43;;
20042;SDS011;10182;52.896;6.496;2023-12-22T23:25:21;8.80;;;2.17;;
20042;SDS011;10182;52.896;6.496;2023-12-22T23:30:23;14.37;;;2.70;;
20042;SDS011;10182;52.896;6.496;2023-12-22T23:35:26;10.53;;;2.40;;
20042;SDS011;10182;52.896;6.496;2023-12-22T23:40:28;10.67;;;3.20;;
20042;SDS011;10182;52.896;6.496;2023-12-22T23:45:29;16.30;;;3.30;;
20042;SDS011;10182;52.896;6.496;2023-12-22T23:50:33;16.73;;;2.73;;
20042;SDS011;10182;52.896;6.496;2023-12-22T23:55:35;15.40;;;3.67;;
